Aérodrome :
LOGIN :

S'inscrire | Disclaimer

   EN    FR    IT 

 










Légende :    VFR   VFR Marginal   IFR   IFR Intensif   IFR Très Intensif
Visi : 
Plafond : 
>= 8 km
>= 3000ft
5 à 8 km
1000 à 3000 ft
1500m à 5 km
500 à 1000 ft
800 à 1500m
200 à 500 ft
< 800m
< 200 ft
Symboles :   Orages  Brouillard  Fortes neiges  Fortes précipitations  Vent > 20 kt
SIGMETs :   Divers  Orages  Givrage  Turbulence  Onde Orograph.  Cendres Volcan.






- Altitude de l'aérodrome : 102 ft
- Code IATA : KEL


EDHK - Holtenau

DERNIER METAR :
  • 182350Z AUTO 23001KT 3000 // NCD 13/12 Q1023

METARs EXPIRÉS :
  • 182320Z AUTO 24002KT 9999 // NCD 13/12 Q1023
  • 182250Z AUTO 26001KT 9999 // NCD 14/13 Q1023
  • 182220Z AUTO 28002KT 9999 // NCD 14/13 Q1023
  • 182150Z AUTO 30002KT 9999 // NCD 14/13 Q1023
  • 182120Z AUTO 00000KT 9999 // NCD 15/13 Q1023
  • 182050Z AUTO 33001KT 9999 // NCD 15/13 Q1023
  • 182020Z AUTO 33001KT 6000 // NCD 16/13 Q1023
  • 181950Z AUTO 32003KT 9999 // NCD 18/13 Q1023
  • 181920Z AUTO 30003KT 9999 // NCD 19/13 Q1023
  • 181850Z AUTO 28005KT 9999 // NCD 19/13 Q1023

Prévision TAF périmée.



MET'MAP, la Météo Aéronautique d'un coup d'oeil ! - Copyright ORBIFLY Décembre 2007 - Disclaimer

ORBIFLY MET'MAP TEAM :

Programmation & Développement : Alexandra Zaïnal
Sur une idée originale de : Baudouin d'Aumeries
Soutien technique & logistique : Manuel Goepfert
Assistance : Marc-Olivier Méhu




SOURCES & CREDITS :

   NOAA